createdAt,value
2022-08-05T00:00:16.251Z,56.56
2022-08-05T00:03:15.546Z,56.72
2022-08-05T00:06:29.205Z,56.82
2022-08-05T00:09:19.663Z,57.11
2022-08-05T00:12:09.360Z,57.24
2022-08-05T00:15:54.436Z,57.10
2022-08-05T00:18:21.505Z,57.23
2022-08-05T00:21:12.488Z,57.33
2022-08-05T00:24:10.779Z,57.33
2022-08-05T00:27:00.679Z,57.69
2022-08-05T00:29:53.737Z,57.55
2022-08-05T00:32:45.759Z,57.63
2022-08-05T00:35:36.044Z,57.67
2022-08-05T00:38:39.144Z,58.01
2022-08-05T00:41:51.675Z,58.04
2022-08-05T00:44:40.204Z,57.73
2022-08-05T00:47:56.213Z,57.89
2022-08-05T00:50:46.131Z,58.02
2022-08-05T00:54:01.188Z,58.16
2022-08-05T00:56:47.089Z,58.36
2022-08-05T00:59:44.350Z,58.16
2022-08-05T01:02:33.362Z,58.16
2022-08-05T01:05:21.321Z,58.04
2022-08-05T01:08:40.291Z,58.12
2022-08-05T01:11:36.712Z,58.19
2022-08-05T01:14:33.751Z,58.17
2022-08-05T01:17:27.298Z,58.09
2022-08-05T01:20:29.773Z,58.22
2022-08-05T01:23:34.747Z,58.42
2022-08-05T01:26:39.975Z,58.38
2022-08-05T01:29:38.991Z,58.48
2022-08-05T01:32:35.865Z,58.57
2022-08-05T01:35:51.318Z,58.69
2022-08-05T01:38:42.771Z,58.82
2022-08-05T01:41:35.360Z,58.73
2022-08-05T01:44:34.221Z,58.89
2022-08-05T01:47:24.247Z,58.89
2022-08-05T01:50:28.530Z,59.11
2022-08-05T01:53:55.053Z,59.10
2022-08-05T01:58:12.462Z,58.96
2022-08-05T01:59:47.226Z,59.29
2022-08-05T02:02:38.944Z,59.49
2022-08-05T02:05:43.214Z,59.40
2022-08-05T02:08:40.850Z,59.53
2022-08-05T02:11:52.268Z,59.67
2022-08-05T02:14:47.929Z,59.80
2022-08-05T02:18:30.688Z,59.84
2022-08-05T02:21:02.496Z,59.82
2022-08-05T02:23:56.299Z,59.83
2022-08-05T02:26:55.003Z,59.76
2022-08-05T02:29:59.599Z,59.69
2022-08-05T02:32:55.582Z,59.70
2022-08-05T02:35:56.331Z,59.89
2022-08-05T02:38:38.799Z,60.13
2022-08-05T02:41:43.380Z,59.96
2022-08-05T02:44:39.545Z,59.89
2022-08-05T02:47:58.674Z,60.11
2022-08-05T02:50:43.557Z,59.79
2022-08-05T02:53:39.267Z,60.13
2022-08-05T02:56:29.079Z,59.84
2022-08-05T02:59:22.398Z,60.02
2022-08-05T03:02:19.789Z,60.25
2022-08-05T03:06:55.284Z,60.38
2022-08-05T03:08:37.345Z,60.54
2022-08-05T03:11:57.228Z,60.44
2022-08-05T03:14:46.122Z,60.33
2022-08-05T03:17:41.484Z,60.46
2022-08-05T03:20:31.264Z,60.46
2022-08-05T03:23:24.202Z,60.59
2022-08-05T03:26:31.568Z,60.65
2022-08-05T03:29:21.738Z,60.68
2022-08-05T03:32:15.386Z,60.69
2022-08-05T03:35:08.899Z,60.91
2022-08-05T03:37:58.467Z,60.96
2022-08-05T03:40:48.808Z,60.81
2022-08-05T03:44:09.269Z,60.87
2022-08-05T03:46:46.746Z,61.01
2022-08-05T03:49:51.660Z,61.12
2022-08-05T03:55:52.466Z,61.17
2022-08-05T03:56:17.234Z,61.32
2022-08-05T03:59:20.485Z,61.35
2022-08-05T04:02:17.436Z,61.28
2022-08-05T04:05:23.079Z,61.28
2022-08-05T04:08:29.954Z,61.58
2022-08-05T04:11:21.853Z,61.76
2022-08-05T04:14:18.120Z,61.81
2022-08-05T04:17:09.616Z,62.05
2022-08-05T04:20:00.207Z,62.03
2022-08-05T04:22:53.726Z,62.16
2022-08-05T04:25:57.129Z,62.07
2022-08-05T04:28:51.015Z,62.42
2022-08-05T04:31:40.849Z,62.32
2022-08-05T04:34:33.603Z,62.59
2022-08-05T04:37:31.506Z,62.42
2022-08-05T04:40:35.146Z,62.46
2022-08-05T04:43:23.811Z,62.53
2022-08-05T04:46:27.877Z,62.54
2022-08-05T04:49:17.186Z,62.48
2022-08-05T04:52:13.501Z,62.62
2022-08-05T04:55:09.604Z,62.57
2022-08-05T04:58:05.421Z,62.63
2022-08-05T05:01:01.343Z,62.61
2022-08-05T05:03:50.580Z,62.59
2022-08-05T05:06:44.403Z,62.63
2022-08-05T05:09:33.964Z,62.67
2022-08-05T05:12:27.312Z,62.69
2022-08-05T05:15:17.517Z,62.57
2022-08-05T05:18:31.441Z,62.50
2022-08-05T05:21:22.687Z,62.43
2022-08-05T05:24:17.706Z,63.01
2022-08-05T05:27:08.424Z,63.40
2022-08-05T05:30:04.100Z,63.76
2022-08-05T05:32:53.891Z,63.57
2022-08-05T05:35:43.004Z,62.56
2022-08-05T05:38:33.402Z,61.98
2022-08-05T05:41:22.255Z,61.22
2022-08-05T05:44:36.078Z,60.79
2022-08-05T05:47:30.576Z,60.88
2022-08-05T05:50:30.966Z,60.81
2022-08-05T05:53:21.235Z,60.38
2022-08-05T05:56:11.462Z,59.91
2022-08-05T05:59:03.275Z,59.73
2022-08-05T06:01:57.235Z,59.32
2022-08-05T06:04:49.278Z,59.21
2022-08-05T06:07:42.945Z,59.10
2022-08-05T06:10:52.844Z,59.06
2022-08-05T06:13:50.486Z,59.02
2022-08-05T06:16:42.904Z,59.11
2022-08-05T06:19:35.578Z,58.99
2022-08-05T06:22:26.270Z,59.06
2022-08-05T06:25:59.302Z,59.22
2022-08-05T06:28:24.021Z,59.18
2022-08-05T06:31:17.648Z,59.08
2022-08-05T06:34:08.910Z,59.18
2022-08-05T06:36:58.743Z,59.14
2022-08-05T06:39:48.801Z,59.13
2022-08-05T06:42:39.950Z,59.08
2022-08-05T06:46:02.844Z,59.06
2022-08-05T06:48:56.418Z,59.01
2022-08-05T06:51:46.979Z,59.07
2022-08-05T06:54:36.052Z,58.76
2022-08-05T06:57:57.340Z,58.79
2022-08-05T07:00:33.883Z,58.76
2022-08-05T07:03:32.448Z,58.71
2022-08-05T07:06:22.863Z,58.50
2022-08-05T07:09:11.827Z,58.54
2022-08-05T07:12:03.080Z,58.48
2022-08-05T07:15:12.436Z,58.47
2022-08-05T07:18:29.061Z,58.40
2022-08-05T07:21:11.586Z,58.35
2022-08-05T07:24:01.313Z,58.34
2022-08-05T07:26:51.328Z,58.33
2022-08-05T07:30:22.884Z,58.24
2022-08-05T07:32:39.817Z,58.26
2022-08-05T07:36:04.264Z,58.11
2022-08-05T07:38:33.445Z,58.01
2022-08-05T07:42:14.039Z,57.88
2022-08-05T07:44:36.639Z,57.64
2022-08-05T07:47:25.749Z,57.65
2022-08-05T07:50:16.629Z,57.48
2022-08-05T07:53:08.606Z,57.43
2022-08-05T07:56:06.596Z,57.49
2022-08-05T07:59:11.189Z,57.24
2022-08-05T08:02:03.358Z,57.39
2022-08-05T08:04:56.250Z,57.30
2022-08-05T08:08:00.274Z,57.12
2022-08-05T08:10:49.605Z,56.97
2022-08-05T08:13:49.396Z,56.73
2022-08-05T08:16:53.518Z,56.74
2022-08-05T08:20:43.615Z,56.66
2022-08-05T08:22:52.898Z,56.57
2022-08-05T08:25:59.929Z,56.53
2022-08-05T08:28:59.455Z,56.51
2022-08-05T08:31:51.949Z,56.36
2022-08-05T08:34:41.166Z,56.25
2022-08-05T08:37:31.028Z,56.11
2022-08-05T08:40:28.714Z,56.14
2022-08-05T08:45:22.360Z,56.06
2022-08-05T08:46:31.889Z,55.75
2022-08-05T08:50:05.841Z,55.78
2022-08-05T08:52:34.451Z,55.70
2022-08-05T08:56:02.913Z,55.57
2022-08-05T08:58:44.037Z,55.49
2022-08-05T09:01:42.652Z,55.41
2022-08-05T09:04:33.289Z,55.34
2022-08-05T09:07:55.996Z,54.97
2022-08-05T09:10:46.851Z,54.49
2022-08-05T09:14:01.089Z,54.38
2022-08-05T09:16:48.700Z,54.33
2022-08-05T09:20:01.522Z,53.92
2022-08-05T09:23:19.568Z,53.71
2022-08-05T09:26:11.079Z,53.17
2022-08-05T09:29:09.544Z,52.65
2022-08-05T09:32:40.057Z,52.25
2022-08-05T09:35:26.757Z,51.76
2022-08-05T09:38:27.593Z,51.76
2022-08-05T09:41:18.677Z,51.45
2022-08-05T09:44:07.909Z,51.10
2022-08-05T09:47:10.389Z,50.91
2022-08-05T09:50:06.233Z,50.81
2022-08-05T09:52:58.720Z,50.69
2022-08-05T09:55:56.108Z,50.46
2022-08-05T09:59:00.935Z,49.71
2022-08-05T10:01:47.930Z,49.46
2022-08-05T10:04:47.880Z,48.97
2022-08-05T10:08:36.107Z,48.88
2022-08-05T10:10:59.086Z,48.88
2022-08-05T10:13:49.340Z,48.81
2022-08-05T10:16:41.892Z,48.59
2022-08-05T10:20:04.447Z,48.11
2022-08-05T10:22:51.875Z,47.90
2022-08-05T10:25:41.818Z,47.62
2022-08-05T10:28:36.610Z,47.43
2022-08-05T10:32:51.473Z,47.34
2022-08-05T10:34:36.059Z,47.46
2022-08-05T10:37:40.073Z,47.53
2022-08-05T10:40:38.976Z,47.42
2022-08-05T10:43:42.610Z,47.15
2022-08-05T10:46:46.407Z,46.74
2022-08-05T10:50:31.660Z,46.84
2022-08-05T10:53:34.004Z,46.73
2022-08-05T10:56:28.739Z,46.66
2022-08-05T11:00:03.553Z,46.52
2022-08-05T11:02:37.550Z,46.33
2022-08-05T11:05:31.673Z,45.49
2022-08-05T11:08:34.305Z,45.61
2022-08-05T11:11:52.095Z,45.81
2022-08-05T11:17:59.813Z,45.53
2022-08-05T11:20:50.897Z,45.27
2022-08-05T11:24:04.139Z,45.02
2022-08-05T11:27:51.014Z,44.89
2022-08-05T11:31:12.016Z,44.62
2022-08-05T11:34:36.871Z,44.82
2022-08-05T11:38:29.411Z,44.62
2022-08-05T11:41:56.235Z,44.66
2022-08-05T11:44:52.865Z,44.57
2022-08-05T11:47:48.997Z,44.34
2022-08-05T11:50:41.287Z,44.21
2022-08-05T11:53:33.747Z,44.00
2022-08-05T11:56:50.414Z,43.77
2022-08-05T11:59:49.782Z,43.64
2022-08-05T12:02:39.998Z,43.52
2022-08-05T12:05:36.460Z,43.39
2022-08-05T12:08:22.330Z,43.36
2022-08-05T12:11:20.523Z,43.34
2022-08-05T12:14:10.215Z,43.15
2022-08-05T12:18:00.708Z,42.97
2022-08-05T12:20:25.399Z,43.21
2022-08-05T12:23:17.648Z,43.04
2022-08-05T12:26:09.297Z,42.85
2022-08-05T12:28:58.104Z,42.83
2022-08-05T12:31:53.218Z,42.90
2022-08-05T12:34:43.850Z,42.91
2022-08-05T12:37:38.288Z,42.50
2022-08-05T12:40:30.057Z,42.68
2022-08-05T12:43:21.077Z,42.65
2022-08-05T12:46:03.312Z,42.87
2022-08-05T12:49:13.442Z,43.04
2022-08-05T12:52:12.355Z,42.98
2022-08-05T12:55:21.759Z,42.81
2022-08-05T12:58:48.951Z,42.72
2022-08-05T13:02:00.556Z,42.81
2022-08-05T13:04:52.594Z,42.52
2022-08-05T13:08:01.602Z,42.72
2022-08-05T13:10:51.594Z,42.47
2022-08-05T13:14:05.714Z,42.45
2022-08-05T13:16:56.643Z,42.36
2022-08-05T13:20:00.228Z,42.43
2022-08-05T13:22:52.168Z,42.23
2022-08-05T13:25:58.607Z,42.29
2022-08-05T13:28:48.828Z,42.35
2022-08-05T13:32:04.569Z,42.17
2022-08-05T13:34:52.617Z,42.33
2022-08-05T13:37:41.653Z,42.16
2022-08-05T13:40:51.880Z,42.11
2022-08-05T13:43:44.791Z,42.09
2022-08-05T13:47:02.371Z,42.06
2022-08-05T13:49:53.568Z,42.01
2022-08-05T13:52:42.260Z,41.83
2022-08-05T13:55:41.503Z,41.91
2022-08-05T13:58:38.361Z,41.95
2022-08-05T14:01:36.384Z,41.87
2022-08-05T14:05:00.576Z,41.78
2022-08-05T14:07:59.945Z,41.88
2022-08-05T14:11:08.063Z,42.00
2022-08-05T14:14:08.211Z,42.08
2022-08-05T14:16:57.524Z,42.06
2022-08-05T14:19:55.983Z,42.08
2022-08-05T14:22:50.086Z,41.94
2022-08-05T14:25:32.405Z,41.80
2022-08-05T14:28:26.970Z,41.77
2022-08-05T14:31:17.226Z,41.80
2022-08-05T14:34:18.544Z,41.82
2022-08-05T14:37:13.353Z,41.64
2022-08-05T14:40:03.355Z,41.68
2022-08-05T14:42:53.072Z,41.68
2022-08-05T14:45:41.729Z,41.76
2022-08-05T14:48:33.486Z,41.62
2022-08-05T14:51:23.285Z,41.80
2022-08-05T14:54:28.082Z,41.66
2022-08-05T14:57:19.256Z,41.73
2022-08-05T15:00:11.564Z,41.67
2022-08-05T15:03:06.820Z,41.68
2022-08-05T15:06:08.098Z,41.73
2022-08-05T15:09:03.653Z,41.71
2022-08-05T15:11:53.718Z,41.77
2022-08-05T15:14:49.660Z,41.83
2022-08-05T15:17:45.582Z,41.80
2022-08-05T15:20:36.683Z,42.05
2022-08-05T15:23:25.507Z,42.10
2022-08-05T15:26:17.010Z,42.10
2022-08-05T15:29:21.299Z,42.13
2022-08-05T15:32:11.217Z,42.19
2022-08-05T15:35:10.004Z,42.31
2022-08-05T15:38:09.094Z,42.21
2022-08-05T15:41:22.398Z,42.28
2022-08-05T15:44:12.992Z,42.29
2022-08-05T15:47:03.127Z,42.32
2022-08-05T15:49:58.743Z,42.35
2022-08-05T15:52:53.715Z,42.33
2022-08-05T15:56:02.265Z,42.33
2022-08-05T15:58:53.150Z,42.27
2022-08-05T16:01:52.867Z,42.35
2022-08-05T16:04:43.296Z,42.41
2022-08-05T16:07:36.828Z,42.28
2022-08-05T16:10:28.787Z,42.35
2022-08-05T16:13:23.629Z,42.32
2022-08-05T16:16:14.771Z,42.39
2022-08-05T16:19:11.660Z,42.36
2022-08-05T16:22:10.798Z,42.41
2022-08-05T16:25:05.344Z,42.49
2022-08-05T16:28:04.975Z,42.59
2022-08-05T16:30:55.169Z,42.53
2022-08-05T16:33:45.242Z,42.49
2022-08-05T16:36:34.513Z,42.57
2022-08-05T16:40:05.267Z,42.56
2022-08-05T16:42:35.755Z,42.61
2022-08-05T16:46:06.703Z,42.70
2022-08-05T16:48:37.361Z,42.65
2022-08-05T16:51:30.814Z,42.61
2022-08-05T16:54:33.167Z,42.79
2022-08-05T16:57:30.135Z,42.73
2022-08-05T17:00:37.624Z,42.81
2022-08-05T17:03:27.097Z,42.80
2022-08-05T17:06:16.922Z,42.86
2022-08-05T17:08:58.048Z,42.95
2022-08-05T17:11:48.761Z,43.06
2022-08-05T17:14:39.154Z,43.24
2022-08-05T17:17:42.622Z,43.34
2022-08-05T17:20:26.726Z,43.38
2022-08-05T17:24:03.409Z,43.47
2022-08-05T17:26:23.635Z,43.60
2022-08-05T17:29:12.479Z,43.83
2022-08-05T17:32:02.437Z,43.74
2022-08-05T17:34:51.434Z,43.90
2022-08-05T17:37:45.409Z,44.07
2022-08-05T17:40:37.176Z,44.26
2022-08-05T17:43:50.670Z,44.29
2022-08-05T17:46:19.771Z,44.40
2022-08-05T17:49:09.822Z,44.53
2022-08-05T17:51:58.769Z,44.74
2022-08-05T17:54:52.191Z,45.17
2022-08-05T17:57:43.558Z,45.37
2022-08-05T18:00:40.908Z,45.51
2022-08-05T18:03:58.931Z,45.70
2022-08-05T18:06:52.655Z,45.98
2022-08-05T18:09:58.860Z,46.05
2022-08-05T18:12:31.517Z,46.24
2022-08-05T18:15:23.780Z,46.47
2022-08-05T18:18:13.372Z,46.67
2022-08-05T18:21:02.603Z,46.80
2022-08-05T18:23:53.636Z,46.98
2022-08-05T18:26:43.829Z,47.17
2022-08-05T18:29:40.950Z,47.30
2022-08-05T18:32:30.701Z,47.42
2022-08-05T18:35:28.273Z,47.67
2022-08-05T18:38:26.201Z,47.72
2022-08-05T18:41:56.591Z,47.99
2022-08-05T18:44:35.064Z,48.29
2022-08-05T18:47:26.818Z,48.36
2022-08-05T18:50:42.393Z,48.51
2022-08-05T18:53:35.033Z,48.72
2022-08-05T18:56:34.817Z,48.76
2022-08-05T18:59:43.183Z,48.99
2022-08-05T19:02:34.230Z,49.09
2022-08-05T19:06:12.600Z,49.25
2022-08-05T19:08:35.005Z,49.38
2022-08-05T19:11:28.619Z,49.56
2022-08-05T19:14:38.043Z,49.73
2022-08-05T19:18:08.050Z,49.90
2022-08-05T19:20:47.005Z,50.09
2022-08-05T19:24:07.162Z,50.21
2022-08-05T19:26:55.443Z,50.33
2022-08-05T19:29:44.547Z,50.49
2022-08-05T19:32:41.850Z,50.58
2022-08-05T19:35:56.736Z,50.62
2022-08-05T19:38:40.917Z,50.87
2022-08-05T19:41:58.337Z,50.98
2022-08-05T19:44:45.342Z,51.19
2022-08-05T19:47:40.174Z,51.32
2022-08-05T19:50:30.671Z,51.49
2022-08-05T19:54:05.380Z,51.64
2022-08-05T19:56:32.668Z,51.76
2022-08-05T19:59:56.020Z,51.93
2022-08-05T20:02:36.272Z,52.09
2022-08-05T20:05:25.851Z,52.14
2022-08-05T20:08:32.363Z,52.07
2022-08-05T20:11:23.447Z,52.19
2022-08-05T20:14:11.922Z,52.38
2022-08-05T20:17:06.246Z,52.45
2022-08-05T20:19:57.408Z,52.64
2022-08-05T20:22:46.822Z,52.63
2022-08-05T20:25:39.887Z,52.78
2022-08-05T20:28:29.130Z,52.87
2022-08-05T20:31:21.706Z,52.93
2022-08-05T20:34:17.575Z,53.11
2022-08-05T20:37:24.140Z,53.13
2022-08-05T20:40:18.672Z,53.23
2022-08-05T20:43:08.821Z,53.41
2022-08-05T20:45:57.655Z,53.58
2022-08-05T20:48:51.183Z,53.65
2022-08-05T20:51:40.284Z,53.82
2022-08-05T20:54:20.290Z,53.81
2022-08-05T20:57:09.506Z,53.93
2022-08-05T21:00:19.638Z,54.00
2022-08-05T21:03:16.747Z,54.01
2022-08-05T21:06:27.781Z,54.18
2022-08-05T21:09:16.935Z,54.30
2022-08-05T21:12:10.655Z,54.19
2022-08-05T21:15:00.377Z,54.30
2022-08-05T21:17:49.372Z,54.29
2022-08-05T21:20:39.599Z,54.46
2022-08-05T21:23:28.702Z,54.65
2022-08-05T21:26:26.362Z,54.66
2022-08-05T21:29:18.540Z,54.78
2022-08-05T21:32:08.402Z,55.01
2022-08-05T21:35:17.542Z,55.03
2022-08-05T21:38:08.124Z,55.14
2022-08-05T21:40:57.272Z,55.28
2022-08-05T21:43:50.754Z,55.13
2022-08-05T21:46:50.406Z,55.24
2022-08-05T21:49:58.770Z,55.20
2022-08-05T21:52:49.279Z,55.23
2022-08-05T21:56:01.497Z,55.20
2022-08-05T21:58:57.223Z,55.25
2022-08-05T22:01:46.494Z,55.30
2022-08-05T22:04:35.792Z,55.33
2022-08-05T22:07:54.218Z,55.38
2022-08-05T22:10:34.294Z,55.39
2022-08-05T22:14:19.920Z,55.50
2022-08-05T22:16:51.905Z,55.68
2022-08-05T22:20:00.724Z,55.66
2022-08-05T22:23:17.177Z,55.89
2022-08-05T22:26:28.429Z,55.97
2022-08-05T22:29:18.974Z,55.97
2022-08-05T22:32:17.370Z,56.17
2022-08-05T22:35:12.788Z,56.18
2022-08-05T22:38:01.933Z,56.39
2022-08-05T22:40:55.221Z,56.36
2022-08-05T22:43:44.497Z,56.58
2022-08-05T22:46:34.186Z,56.68
2022-08-05T22:50:22.865Z,56.66
2022-08-05T22:52:38.058Z,56.71
2022-08-05T22:55:27.276Z,56.88
2022-08-05T22:58:28.569Z,56.94
2022-08-05T23:01:17.507Z,57.04
2022-08-05T23:04:09.497Z,57.07
2022-08-05T23:06:59.478Z,57.28
2022-08-05T23:09:57.806Z,57.18
2022-08-05T23:12:55.574Z,57.31
2022-08-05T23:15:45.949Z,57.47
2022-08-05T23:18:39.082Z,57.46
2022-08-05T23:21:42.568Z,57.56
2022-08-05T23:24:36.660Z,57.64
2022-08-05T23:27:28.943Z,57.74
2022-08-05T23:30:20.943Z,57.83
2022-08-05T23:33:25.801Z,57.77
2022-08-05T23:36:15.378Z,58.02
2022-08-05T23:39:06.137Z,58.13
2022-08-05T23:41:56.495Z,58.29
2022-08-05T23:44:45.615Z,58.34
2022-08-05T23:47:48.373Z,58.18
2022-08-05T23:50:40.401Z,58.35
2022-08-05T23:53:46.997Z,58.49
2022-08-05T23:56:36.010Z,58.58
2022-08-05T23:59:27.595Z,58.51
